Date, South Dakota
Current Conditions -  °F | °C
As of 1:06 PM on Monday 22 Dec 2014 (Local Time) from KHEI Reporting Station
Light Snow Light Snow  
Wind Chill: 12°   Ceiling: 3200
Heat Index: 27°   Visibility: 2.5mi
Dew Point: 23°   Wind: 24mph
Humidity: 85%   Direction: 320°NW
Pressure: 29.54"   Gusts: 31mph
Location:  45.6029°N, 102.827°W
Report Text: KHEI 222006Z AUTO 32021G27KT 2 1/2SM -SN BR FEW012 BKN032 OVC050 M03/M05 A2954 RMK AO2 PK WND 32027/2006 P0000 T10281050
Loading
Personal Weather Stations






























Interactive Weather Map New forecast layout! Learn more

10-Day Weather Forecast

Advertisements
Track Severe Weather on mobile